createdAt,value
2023-02-03T00:00:01.327Z,7.20
2023-02-03T00:02:28.792Z,14.85
2023-02-03T00:04:56.128Z,10.68
2023-02-03T00:07:23.641Z,12.80
2023-02-03T00:09:51.244Z,10.93
2023-02-03T00:12:18.702Z,9.67
2023-02-03T00:14:45.991Z,9.25
2023-02-03T00:17:15.163Z,10.68
2023-02-03T00:19:42.576Z,8.75
2023-02-03T00:22:10.085Z,9.38
2023-02-03T00:24:37.647Z,5.93
2023-02-03T00:27:05.055Z,7.50
2023-02-03T00:29:32.589Z,9.93
2023-02-03T00:32:00.045Z,7.75
2023-02-03T00:34:31.411Z,6.65
2023-02-03T00:36:59.201Z,6.97
2023-02-03T00:39:26.610Z,4.85
2023-02-03T00:41:53.981Z,4.90
2023-02-03T00:44:21.489Z,6.88
2023-02-03T00:46:49.040Z,13.27
2023-02-03T00:49:16.535Z,14.88
2023-02-03T00:51:43.872Z,11.88
2023-02-03T00:54:11.293Z,16.85
2023-02-03T00:56:38.678Z,9.85
2023-02-03T00:59:07.010Z,12.63
2023-02-03T01:01:36.257Z,10.68
2023-02-03T01:04:04.435Z,16.42
2023-02-03T01:06:34.314Z,21.42
2023-02-03T01:09:03.709Z,10.50
2023-02-03T01:11:32.909Z,8.05
2023-02-03T01:14:01.775Z,9.98
2023-02-03T01:16:31.718Z,8.63
2023-02-03T01:18:59.108Z,9.05
2023-02-03T01:21:28.747Z,10.13
2023-02-03T01:23:56.478Z,7.32
2023-02-03T01:26:24.434Z,6.05
2023-02-03T01:29:00.368Z,5.90
2023-02-03T01:31:37.027Z,7.82
2023-02-03T01:34:12.941Z,8.93
2023-02-03T01:36:40.655Z,8.43
2023-02-03T01:39:08.461Z,6.60
2023-02-03T01:41:39.478Z,7.70
2023-02-03T01:44:45.969Z,7.63
2023-02-03T01:47:35.045Z,7.40
2023-02-03T01:50:30.312Z,6.32
2023-02-03T01:53:04.551Z,6.53
2023-02-03T01:55:38.394Z,5.70
2023-02-03T01:58:13.751Z,10.27
2023-02-03T02:00:42.297Z,6.28
2023-02-03T02:03:10.819Z,6.68
2023-02-03T02:05:46.985Z,5.25
2023-02-03T02:08:18.147Z,6.65
2023-02-03T02:10:46.043Z,11.23
2023-02-03T02:13:15.524Z,4.90
2023-02-03T02:16:17.979Z,4.40
2023-02-03T02:19:03.116Z,6.03
2023-02-03T02:22:02.795Z,7.32
2023-02-03T02:24:53.473Z,4.93
2023-02-03T02:30:51.015Z,5.93
2023-02-03T02:33:44.581Z,5.10
2023-02-03T02:36:46.915Z,6.13
2023-02-03T02:39:51.438Z,7.35
2023-02-03T02:42:42.676Z,7.30
2023-02-03T02:45:34.164Z,5.43
2023-02-03T02:48:15.475Z,5.18
2023-02-03T02:50:50.737Z,7.43
2023-02-03T02:53:24.121Z,5.97
2023-02-03T02:55:54.509Z,8.02
2023-02-03T02:58:23.480Z,5.88
2023-02-03T03:00:51.693Z,8.13
2023-02-03T03:03:24.464Z,5.03
2023-02-03T03:06:18.365Z,7.75
2023-02-03T03:09:42.568Z,8.32
2023-02-03T03:12:22.703Z,7.10
2023-02-03T03:14:59.212Z,5.85
2023-02-03T03:17:41.007Z,5.28
2023-02-03T03:20:24.813Z,5.68
2023-02-03T03:23:06.271Z,16.63
2023-02-03T03:25:45.948Z,6.00
2023-02-03T03:28:27.546Z,5.80
2023-02-03T03:30:55.188Z,9.18
2023-02-03T03:33:23.406Z,8.27
2023-02-03T03:36:03.283Z,6.13
2023-02-03T03:38:55.021Z,6.45
2023-02-03T03:41:40.046Z,6.38
2023-02-03T03:44:14.571Z,5.75
2023-02-03T03:46:50.225Z,7.30
2023-02-03T03:49:22.207Z,8.95
2023-02-03T03:51:56.476Z,6.13
2023-02-03T03:54:27.770Z,5.28
2023-02-03T03:57:02.729Z,5.15
2023-02-03T03:59:39.291Z,6.55
2023-02-03T04:02:06.888Z,5.93
2023-02-03T04:04:37.750Z,9.93
2023-02-03T04:07:05.336Z,5.88
2023-02-03T04:09:36.689Z,6.90
2023-02-03T04:12:06.340Z,6.93
2023-02-03T04:14:40.887Z,5.85
2023-02-03T04:17:09.518Z,12.80
2023-02-03T04:22:06.436Z,6.82
2023-02-03T04:24:33.855Z,5.32
2023-02-03T04:27:01.562Z,4.80
2023-02-03T04:29:29.598Z,7.55
2023-02-03T04:31:57.360Z,6.70
2023-02-03T04:34:24.820Z,7.68
2023-02-03T04:36:52.197Z,6.95
2023-02-03T04:39:19.616Z,5.13
2023-02-03T04:41:46.969Z,5.70
2023-02-03T04:44:14.466Z,5.78
2023-02-03T04:46:41.769Z,6.18
2023-02-03T04:49:11.706Z,9.20
2023-02-03T04:51:39.150Z,7.32
2023-02-03T04:54:06.712Z,9.38
2023-02-03T04:56:34.053Z,7.85
2023-02-03T04:59:01.441Z,7.65
2023-02-03T05:01:29.038Z,7.88
2023-02-03T05:03:56.460Z,8.17
2023-02-03T05:06:30.067Z,9.15
2023-02-03T05:08:58.374Z,16.33
2023-02-03T05:11:26.123Z,5.85
2023-02-03T05:13:54.490Z,8.02
2023-02-03T05:16:21.949Z,6.60
2023-02-03T05:18:49.826Z,9.13
2023-02-03T05:21:17.789Z,12.18
2023-02-03T05:23:45.302Z,7.28
2023-02-03T05:26:12.856Z,13.63
2023-02-03T05:28:40.206Z,11.20
2023-02-03T05:31:07.773Z,15.25
2023-02-03T05:33:35.136Z,11.38
2023-02-03T05:36:02.460Z,10.60
2023-02-03T05:41:17.138Z,14.55
2023-02-03T05:43:44.567Z,11.68
2023-02-03T05:46:12.022Z,18.80
2023-02-03T05:48:39.434Z,14.00
2023-02-03T05:51:06.792Z,13.43
2023-02-03T05:53:34.124Z,9.57
2023-02-03T05:56:01.513Z,15.32
2023-02-03T05:58:28.884Z,9.50
2023-02-03T06:00:56.252Z,10.38
2023-02-03T06:03:23.779Z,10.82
2023-02-03T06:05:51.162Z,20.50
2023-02-03T06:08:18.512Z,18.20
2023-02-03T06:10:45.923Z,15.73
2023-02-03T06:13:16.526Z,18.35
2023-02-03T06:15:44.328Z,19.90
2023-02-03T06:18:11.711Z,26.25
2023-02-03T06:20:39.120Z,24.60
2023-02-03T06:23:06.487Z,25.77
2023-02-03T06:25:33.894Z,19.02
2023-02-03T06:28:01.443Z,12.80
2023-02-03T06:30:29.536Z,16.53
2023-02-03T06:32:57.056Z,20.75
2023-02-03T06:35:24.410Z,14.40
2023-02-03T06:37:51.906Z,11.15
2023-02-03T06:40:19.540Z,12.73
2023-02-03T06:42:48.468Z,12.68
2023-02-03T06:45:16.224Z,9.45
2023-02-03T06:47:45.798Z,12.53
2023-02-03T06:50:16.192Z,16.50
2023-02-03T06:52:43.723Z,16.30
2023-02-03T06:55:11.251Z,15.85
2023-02-03T06:57:47.612Z,13.35
2023-02-03T07:00:19.299Z,9.50
2023-02-03T07:02:57.495Z,8.05
2023-02-03T07:05:25.801Z,10.70
2023-02-03T07:07:53.739Z,9.23
2023-02-03T07:10:21.366Z,9.30
2023-02-03T07:12:50.835Z,18.47
2023-02-03T07:15:19.051Z,19.60
2023-02-03T07:17:54.880Z,30.60
2023-02-03T07:20:23.966Z,19.88
2023-02-03T07:22:56.608Z,17.45
2023-02-03T07:25:25.192Z,19.80
2023-02-03T07:27:52.722Z,19.45
2023-02-03T07:30:20.440Z,15.05
2023-02-03T07:32:52.299Z,11.40
2023-02-03T07:35:20.345Z,13.85
2023-02-03T07:37:47.861Z,15.27
2023-02-03T07:40:17.398Z,19.02
2023-02-03T07:42:47.962Z,10.50
2023-02-03T07:45:17.829Z,10.02
2023-02-03T07:47:45.424Z,7.95
2023-02-03T07:50:13.659Z,9.70
2023-02-03T07:52:41.122Z,6.95
2023-02-03T07:55:09.289Z,8.10
2023-02-03T07:57:37.344Z,9.30
2023-02-03T08:00:05.507Z,5.10
2023-02-03T08:02:40.523Z,6.40
2023-02-03T08:05:08.589Z,4.45
2023-02-03T08:07:36.119Z,11.88
2023-02-03T08:10:04.676Z,5.68
2023-02-03T08:14:59.131Z,20.60
2023-02-03T08:17:26.807Z,19.70
2023-02-03T08:19:54.235Z,12.50
2023-02-03T08:22:21.652Z,9.02
2023-02-03T08:24:49.341Z,10.32
2023-02-03T08:27:20.073Z,10.30
2023-02-03T08:29:48.328Z,6.97
2023-02-03T08:32:21.290Z,11.07
2023-02-03T08:34:50.191Z,16.60
2023-02-03T08:37:21.183Z,14.32
2023-02-03T08:39:48.645Z,13.45
2023-02-03T08:42:16.804Z,8.77
2023-02-03T08:44:44.875Z,8.35
2023-02-03T08:47:12.894Z,14.25
2023-02-03T08:49:40.918Z,9.48
2023-02-03T08:52:12.021Z,4.70
2023-02-03T08:54:39.583Z,8.60
2023-02-03T08:57:07.897Z,3.97
2023-02-03T08:59:38.854Z,4.82
2023-02-03T09:02:11.297Z,5.60
2023-02-03T09:04:38.702Z,10.75
2023-02-03T09:07:06.184Z,3.72
2023-02-03T09:09:33.621Z,4.10
2023-02-03T09:12:02.358Z,4.93
2023-02-03T09:14:31.481Z,6.72
2023-02-03T09:17:00.843Z,6.97
2023-02-03T09:19:28.206Z,3.30
2023-02-03T09:21:57.242Z,4.70
2023-02-03T09:24:25.042Z,7.90
2023-02-03T09:26:53.054Z,3.83
2023-02-03T09:29:20.612Z,3.25
2023-02-03T09:31:52.727Z,5.18
2023-02-03T09:34:21.415Z,2.63
2023-02-03T09:39:16.218Z,4.72
2023-02-03T09:42:19.859Z,6.78
2023-02-03T09:45:13.856Z,5.05
2023-02-03T09:47:44.812Z,20.38
2023-02-03T09:50:20.875Z,31.90
2023-02-03T09:52:50.038Z,41.00
2023-02-03T09:55:56.037Z,15.90
2023-02-03T09:58:24.981Z,7.15
2023-02-03T10:01:02.548Z,7.18
2023-02-03T10:03:41.828Z,7.18
2023-02-03T10:06:37.608Z,5.95
2023-02-03T10:09:32.237Z,3.75
2023-02-03T10:12:15.929Z,5.43
2023-02-03T10:15:02.564Z,4.22
2023-02-03T10:17:58.543Z,3.22
2023-02-03T10:20:41.101Z,10.55
2023-02-03T10:23:29.770Z,4.30
2023-02-03T10:26:03.396Z,3.25
2023-02-03T10:28:40.016Z,4.85
2023-02-03T10:31:22.045Z,4.88
2023-02-03T10:34:11.311Z,4.35
2023-02-03T10:36:55.955Z,9.90
2023-02-03T10:39:43.205Z,4.47
2023-02-03T10:42:13.612Z,5.33
2023-02-03T10:44:46.876Z,5.18
2023-02-03T10:47:39.256Z,5.00
2023-02-03T10:50:22.650Z,9.73
2023-02-03T10:52:50.261Z,3.45
2023-02-03T10:55:26.684Z,7.22
2023-02-03T10:57:55.231Z,4.53
2023-02-03T11:00:30.070Z,7.07
2023-02-03T11:03:25.433Z,3.25
2023-02-03T11:06:13.135Z,8.75
2023-02-03T11:08:48.277Z,6.40
2023-02-03T11:11:21.660Z,5.55
2023-02-03T11:14:09.359Z,28.05
2023-02-03T11:16:39.627Z,16.20
2023-02-03T11:19:18.061Z,5.88
2023-02-03T11:21:52.143Z,5.38
2023-02-03T11:24:45.818Z,8.70
2023-02-03T11:27:18.542Z,8.55
2023-02-03T11:29:50.606Z,4.93
2023-02-03T11:32:35.121Z,5.38
2023-02-03T11:35:15.374Z,4.50
2023-02-03T11:37:46.368Z,4.47
2023-02-03T11:40:18.220Z,17.23
2023-02-03T11:43:06.080Z,13.23
2023-02-03T11:45:45.953Z,12.60
2023-02-03T11:48:30.640Z,18.00
2023-02-03T11:51:44.955Z,12.55
2023-02-03T11:54:31.216Z,10.07
2023-02-03T11:57:05.195Z,13.57
2023-02-03T11:59:49.190Z,8.13
2023-02-03T12:03:11.903Z,12.63
2023-02-03T12:05:44.747Z,6.57
2023-02-03T12:08:21.692Z,4.95
2023-02-03T12:11:03.107Z,14.20
2023-02-03T12:13:59.825Z,9.00
2023-02-03T12:16:55.807Z,18.42
2023-02-03T12:19:57.027Z,9.88
2023-02-03T12:22:27.159Z,11.30
2023-02-03T12:25:44.593Z,26.98
2023-02-03T12:28:54.675Z,2.85
2023-02-03T12:31:32.414Z,8.98
2023-02-03T12:34:29.325Z,6.72
2023-02-03T12:37:10.136Z,14.88
2023-02-03T12:39:53.498Z,14.45
2023-02-03T12:42:31.442Z,4.45
2023-02-03T12:45:28.183Z,9.10
2023-02-03T12:48:43.888Z,6.28
2023-02-03T12:51:23.691Z,4.18
2023-02-03T12:54:00.107Z,10.45
2023-02-03T12:56:40.294Z,11.65
2023-02-03T12:59:18.483Z,5.97
2023-02-03T13:01:58.594Z,9.55
2023-02-03T13:04:43.861Z,10.18
2023-02-03T13:07:24.791Z,21.55
2023-02-03T13:10:14.655Z,19.00
2023-02-03T13:12:49.774Z,15.85
2023-02-03T13:15:31.723Z,8.52
2023-02-03T13:18:05.596Z,21.33
2023-02-03T13:20:37.128Z,17.65
2023-02-03T13:23:08.265Z,12.73
2023-02-03T13:26:15.021Z,17.55
2023-02-03T13:29:22.648Z,17.70
2023-02-03T13:32:27.428Z,32.05
2023-02-03T13:35:43.811Z,7.93
2023-02-03T13:38:49.328Z,5.75
2023-02-03T13:41:54.798Z,7.45
2023-02-03T13:44:28.540Z,13.15
2023-02-03T13:46:59.586Z,9.93
2023-02-03T13:49:35.066Z,10.73
2023-02-03T13:52:03.616Z,5.30
2023-02-03T13:57:28.431Z,10.75
2023-02-03T13:59:55.862Z,9.50
2023-02-03T14:02:59.367Z,13.38
2023-02-03T14:05:48.860Z,61.35
2023-02-03T14:08:28.117Z,12.25
2023-02-03T14:11:36.281Z,15.35
2023-02-03T14:16:54.537Z,19.90
2023-02-03T14:19:22.149Z,19.02
2023-02-03T14:21:57.546Z,25.48
2023-02-03T14:24:33.413Z,27.80
2023-02-03T14:27:05.008Z,34.65
2023-02-03T14:29:36.613Z,44.22
2023-02-03T14:32:10.665Z,52.30
2023-02-03T14:34:42.608Z,38.35
2023-02-03T14:37:17.829Z,46.00
2023-02-03T14:40:07.470Z,37.70
2023-02-03T14:43:10.562Z,48.88
2023-02-03T14:46:16.362Z,39.00
2023-02-03T14:49:21.385Z,46.13
2023-02-03T14:52:23.941Z,51.50
2023-02-03T14:55:08.084Z,87.35
2023-02-03T14:57:49.583Z,75.28
2023-02-03T15:00:19.673Z,62.63
2023-02-03T15:03:11.943Z,66.82
2023-02-03T15:05:54.612Z,53.63
2023-02-03T15:08:44.395Z,65.22
2023-02-03T15:11:33.652Z,69.18
2023-02-03T15:14:26.630Z,52.20
2023-02-03T15:17:01.396Z,81.00
2023-02-03T15:19:36.010Z,84.03
2023-02-03T15:22:28.317Z,76.00
2023-02-03T15:25:02.705Z,65.28
2023-02-03T15:27:32.951Z,65.95
2023-02-03T15:30:16.775Z,67.65
2023-02-03T15:33:02.860Z,50.45
2023-02-03T15:35:36.605Z,49.53
2023-02-03T15:38:15.235Z,56.83
2023-02-03T15:40:49.344Z,68.68
2023-02-03T15:43:27.574Z,63.53
2023-02-03T15:45:58.804Z,47.50
2023-02-03T15:48:37.459Z,74.70
2023-02-03T15:51:32.003Z,85.47
2023-02-03T15:54:06.397Z,78.97
2023-02-03T15:56:48.789Z,87.38
2023-02-03T15:59:46.693Z,169.63
2023-02-03T16:02:31.567Z,184.85
2023-02-03T16:05:06.377Z,155.77
2023-02-03T16:07:33.858Z,140.07
2023-02-03T16:10:01.631Z,123.60
2023-02-03T16:12:32.305Z,134.23
2023-02-03T16:15:01.999Z,167.90
2023-02-03T16:17:33.747Z,149.82
2023-02-03T16:20:13.447Z,86.72
2023-02-03T16:22:47.747Z,73.10
2023-02-03T16:25:32.018Z,50.20
2023-02-03T16:28:32.419Z,57.10
2023-02-03T16:31:34.175Z,70.72
2023-02-03T16:34:32.028Z,175.77
2023-02-03T16:37:18.482Z,223.02
2023-02-03T16:40:04.882Z,250.00
2023-02-03T16:42:59.172Z,304.70
2023-02-03T16:45:45.212Z,308.25
2023-02-03T16:48:32.153Z,280.23
2023-02-03T16:51:10.095Z,214.20
2023-02-03T16:53:37.579Z,215.10
2023-02-03T16:56:05.690Z,233.85
2023-02-03T16:58:33.133Z,196.70
2023-02-03T17:01:03.890Z,159.65
2023-02-03T17:03:34.606Z,168.70
2023-02-03T17:06:06.285Z,154.55
2023-02-03T17:08:34.367Z,141.18
2023-02-03T17:11:15.677Z,130.57
2023-02-03T17:13:43.459Z,121.68
2023-02-03T17:16:20.584Z,128.07
2023-02-03T17:18:48.005Z,100.72
2023-02-03T17:21:24.078Z,140.45
2023-02-03T17:23:51.624Z,145.75
2023-02-03T17:26:19.315Z,100.35
2023-02-03T17:28:46.808Z,106.37
2023-02-03T17:31:20.564Z,87.30
2023-02-03T17:33:52.239Z,63.83
2023-02-03T17:36:21.894Z,49.60
2023-02-03T17:55:25.531Z,52.70
2023-02-03T17:57:52.968Z,47.58
2023-02-03T18:00:20.668Z,52.80
2023-02-03T18:02:52.543Z,48.00
2023-02-03T18:05:19.950Z,32.60
2023-02-03T18:10:15.947Z,38.92
2023-02-03T18:12:43.360Z,368.98
2023-02-03T18:15:10.752Z,302.42
2023-02-03T18:17:38.092Z,193.68
2023-02-03T18:20:06.233Z,43.63
2023-02-03T18:22:34.577Z,305.30
2023-02-03T18:25:01.959Z,246.55
2023-02-03T18:27:29.413Z,247.13
2023-02-03T18:29:56.762Z,281.48
2023-02-03T18:32:24.164Z,233.82
2023-02-03T18:34:51.680Z,183.32
2023-02-03T18:37:19.034Z,136.88
2023-02-03T18:39:47.217Z,90.00
2023-02-03T18:42:14.945Z,71.90
2023-02-03T18:44:44.279Z,16.20
2023-02-03T18:47:11.739Z,12.55
2023-02-03T18:49:39.666Z,20.52
2023-02-03T18:52:07.076Z,11.25
2023-02-03T18:54:34.498Z,9.15
2023-02-03T18:57:03.086Z,7.10
2023-02-03T19:01:57.827Z,19.10
2023-02-03T19:04:25.301Z,16.77
2023-02-03T19:06:52.756Z,11.53
2023-02-03T19:09:22.324Z,3.53
2023-02-03T19:11:49.847Z,6.55
2023-02-03T19:14:17.562Z,2.30
2023-02-03T19:16:45.147Z,6.45
2023-02-03T19:19:14.167Z,3.00
2023-02-03T19:21:41.572Z,2.35
2023-02-03T19:24:09.284Z,2.38
2023-02-03T19:26:36.845Z,4.68
2023-02-03T19:29:04.192Z,3.92
2023-02-03T19:31:31.762Z,5.60
2023-02-03T19:34:02.358Z,9.20
2023-02-03T19:36:30.843Z,8.55
2023-02-03T19:38:58.218Z,13.05
2023-02-03T19:41:30.791Z,18.42
2023-02-03T19:43:58.087Z,5.07
2023-02-03T19:46:27.433Z,9.30
2023-02-03T19:48:54.775Z,13.60
2023-02-03T19:51:22.141Z,12.38
2023-02-03T19:53:49.610Z,10.90
2023-02-03T19:56:17.050Z,13.02
2023-02-03T19:58:46.026Z,17.00
2023-02-03T20:01:13.470Z,12.30
2023-02-03T20:03:42.707Z,11.82
2023-02-03T20:06:10.650Z,14.15
2023-02-03T20:08:38.241Z,8.88
2023-02-03T20:11:05.867Z,24.15
2023-02-03T20:13:33.389Z,10.63
2023-02-03T20:16:01.145Z,20.00
2023-02-03T20:18:28.562Z,14.77
2023-02-03T20:20:57.059Z,23.52
2023-02-03T20:23:24.779Z,10.65
2023-02-03T20:25:54.722Z,14.60
2023-02-03T20:28:25.089Z,13.25
2023-02-03T20:30:56.607Z,10.05
2023-02-03T20:33:27.854Z,8.55
2023-02-03T20:35:57.009Z,14.77
2023-02-03T20:38:24.827Z,13.50
2023-02-03T20:40:52.237Z,6.28
2023-02-03T20:43:27.261Z,7.53
2023-02-03T20:45:55.120Z,9.82
2023-02-03T20:48:25.450Z,11.50
2023-02-03T20:50:53.088Z,10.68
2023-02-03T20:53:26.113Z,6.25
2023-02-03T20:56:01.574Z,12.98
2023-02-03T20:58:35.939Z,17.58
2023-02-03T21:01:14.378Z,18.05
2023-02-03T21:06:31.586Z,26.77
2023-02-03T21:09:19.288Z,23.70
2023-02-03T21:11:46.724Z,19.50
2023-02-03T21:14:29.104Z,11.05
2023-02-03T21:16:56.545Z,19.55
2023-02-03T21:19:33.720Z,25.42
2023-02-03T21:22:20.648Z,14.60
2023-02-03T21:24:52.514Z,12.23
2023-02-03T21:27:32.476Z,29.48
2023-02-03T21:30:24.573Z,26.13
2023-02-03T21:32:51.950Z,9.32
2023-02-03T21:35:29.783Z,28.98
2023-02-03T21:38:03.930Z,21.67
2023-02-03T21:40:34.515Z,20.85
2023-02-03T21:43:03.271Z,17.48
2023-02-03T21:45:38.267Z,24.73
2023-02-03T21:48:32.488Z,14.55
2023-02-03T21:51:15.413Z,22.45
2023-02-03T21:53:55.375Z,16.17
2023-02-03T21:56:42.710Z,25.27
2023-02-03T21:59:34.869Z,38.88
2023-02-03T22:02:03.566Z,24.33
2023-02-03T22:06:58.890Z,40.88
2023-02-03T22:09:27.678Z,33.70
2023-02-03T22:11:55.092Z,37.55
2023-02-03T22:14:22.481Z,34.10
2023-02-03T22:16:50.624Z,24.30
2023-02-03T22:19:17.995Z,14.05
2023-02-03T22:21:47.688Z,33.90
2023-02-03T22:24:15.033Z,39.35
2023-02-03T22:26:42.592Z,31.90
2023-02-03T22:29:09.940Z,30.30
2023-02-03T22:31:37.412Z,35.88
2023-02-03T22:34:04.768Z,38.22
2023-02-03T22:36:32.215Z,32.75
2023-02-03T22:38:59.587Z,28.50
2023-02-03T22:41:27.067Z,22.60
2023-02-03T22:43:54.379Z,23.45
2023-02-03T22:46:21.808Z,21.63
2023-02-03T22:48:49.196Z,27.40
2023-02-03T22:51:16.522Z,33.50
2023-02-03T22:53:43.935Z,28.08
2023-02-03T22:56:11.441Z,11.13
2023-02-03T22:58:38.819Z,18.70
2023-02-03T23:01:06.365Z,21.33
2023-02-03T23:03:33.771Z,16.20
2023-02-03T23:06:01.214Z,17.30
2023-02-03T23:08:28.666Z,19.13
2023-02-03T23:10:56.325Z,18.20
2023-02-03T23:13:23.887Z,14.63
2023-02-03T23:15:51.582Z,21.07
2023-02-03T23:18:18.972Z,13.85
2023-02-03T23:20:46.422Z,14.43
2023-02-03T23:23:14.362Z,17.20
2023-02-03T23:25:41.777Z,9.95
2023-02-03T23:28:09.261Z,12.20
2023-02-03T23:30:37.044Z,10.55
2023-02-03T23:33:04.443Z,8.38
2023-02-03T23:35:46.737Z,9.60
2023-02-03T23:38:16.825Z,6.10
2023-02-03T23:40:44.821Z,5.40
2023-02-03T23:43:12.402Z,4.90
2023-02-03T23:45:40.864Z,3.83
2023-02-03T23:48:08.755Z,5.32
2023-02-03T23:50:36.290Z,5.57
2023-02-03T23:53:04.073Z,6.15
2023-02-03T23:55:31.641Z,4.03
2023-02-03T23:57:59.175Z,3.60
